createdAt,value
2019-02-25T00:02:26.850Z,56.77
2019-02-25T00:05:06.234Z,55.90
2019-02-25T00:07:46.423Z,50.00
2019-02-25T00:10:37.507Z,56.43
2019-02-25T00:13:10.868Z,56.03
2019-02-25T00:15:43.013Z,51.97
2019-02-25T00:18:15.845Z,51.90
2019-02-25T00:20:47.175Z,52.17
2019-02-25T00:23:20.444Z,44.47
2019-02-25T00:25:52.657Z,45.03
2019-02-25T00:28:23.953Z,51.13
2019-02-25T00:31:02.624Z,47.93
2019-02-25T00:33:36.377Z,52.23
2019-02-25T00:36:10.148Z,51.43
2019-02-25T00:38:42.985Z,52.67
2019-02-25T00:41:14.692Z,46.43
2019-02-25T00:43:48.050Z,46.43
2019-02-25T00:46:19.497Z,46.73
2019-02-25T00:48:53.353Z,45.77
2019-02-25T00:51:24.855Z,41.67
2019-02-25T00:53:56.551Z,41.23
2019-02-25T00:56:28.142Z,38.57
2019-02-25T00:59:02.212Z,42.13
2019-02-25T01:01:36.869Z,40.43
2019-02-25T01:04:10.936Z,37.00
2019-02-25T01:06:45.986Z,35.10
2019-02-25T01:09:18.003Z,34.80
2019-02-25T01:11:49.381Z,30.83
2019-02-25T01:14:21.233Z,36.17
2019-02-25T01:16:52.885Z,34.27
2019-02-25T01:19:24.676Z,31.30
2019-02-25T01:21:55.411Z,36.73
2019-02-25T01:24:28.405Z,37.87
2019-02-25T01:27:01.574Z,30.57
2019-02-25T01:29:33.864Z,34.23
2019-02-25T01:32:07.706Z,31.53
2019-02-25T01:34:39.141Z,33.80
2019-02-25T01:37:14.702Z,31.93
2019-02-25T01:39:47.256Z,35.07
2019-02-25T01:42:21.416Z,35.97
2019-02-25T01:44:55.559Z,36.97
2019-02-25T01:47:33.573Z,36.63
2019-02-25T01:50:06.105Z,35.93
2019-02-25T01:52:39.642Z,37.10
2019-02-25T01:55:11.220Z,35.90
2019-02-25T01:57:43.394Z,39.70
2019-02-25T02:00:15.448Z,40.57
2019-02-25T02:02:48.459Z,36.67
2019-02-25T02:05:20.057Z,38.77
2019-02-25T02:07:51.927Z,38.90
2019-02-25T02:10:25.213Z,38.93
2019-02-25T02:12:56.083Z,37.97
2019-02-25T02:15:26.783Z,46.30
2019-02-25T02:17:58.774Z,41.80
2019-02-25T02:20:30.466Z,44.37
2019-02-25T02:23:02.619Z,43.67
2019-02-25T02:25:34.625Z,36.80
2019-02-25T02:28:06.246Z,44.50
2019-02-25T02:30:39.573Z,46.13
2019-02-25T02:33:13.758Z,41.37
2019-02-25T02:35:45.982Z,41.33
2019-02-25T02:38:18.761Z,42.77
2019-02-25T02:40:49.857Z,41.47
2019-02-25T02:43:21.043Z,48.97
2019-02-25T02:46:09.288Z,37.23
2019-02-25T02:48:52.362Z,39.73
2019-02-25T02:51:28.230Z,38.30
2019-02-25T02:54:00.513Z,39.30
2019-02-25T02:56:34.111Z,43.90
2019-02-25T02:59:08.612Z,45.17
2019-02-25T03:01:40.853Z,39.53
2019-02-25T03:04:11.649Z,42.80
2019-02-25T03:06:42.305Z,39.83
2019-02-25T03:09:13.504Z,40.53
2019-02-25T03:11:45.043Z,38.47
2019-02-25T03:14:16.494Z,41.43
2019-02-25T03:16:56.135Z,40.97
2019-02-25T03:19:27.451Z,40.47
2019-02-25T03:21:59.095Z,45.23
2019-02-25T03:24:30.457Z,41.73
2019-02-25T03:27:04.224Z,40.70
2019-02-25T03:29:36.248Z,42.57
2019-02-25T03:32:06.970Z,40.03
2019-02-25T03:34:37.772Z,37.50
2019-02-25T03:37:25.547Z,40.40
2019-02-25T03:40:05.931Z,44.80
2019-02-25T03:42:38.250Z,36.63
2019-02-25T03:45:11.353Z,38.00
2019-02-25T03:47:44.495Z,36.93
2019-02-25T03:50:15.982Z,40.23
2019-02-25T03:52:47.756Z,41.17
2019-02-25T03:55:19.533Z,40.37
2019-02-25T03:57:51.019Z,41.30
2019-02-25T04:00:22.181Z,44.00
2019-02-25T04:02:53.498Z,41.30
2019-02-25T04:05:24.264Z,41.23
2019-02-25T04:07:55.163Z,47.23
2019-02-25T04:10:25.704Z,43.93
2019-02-25T04:12:57.764Z,42.70
2019-02-25T04:15:33.791Z,41.80
2019-02-25T04:18:05.819Z,48.77
2019-02-25T04:20:39.409Z,41.53
2019-02-25T04:23:11.228Z,44.23
2019-02-25T04:25:44.764Z,43.73
2019-02-25T04:28:16.143Z,44.27
2019-02-25T04:30:47.620Z,56.93
2019-02-25T04:33:18.339Z,47.57
2019-02-25T04:35:49.133Z,47.83
2019-02-25T04:38:21.003Z,47.43
2019-02-25T04:40:52.476Z,48.97
2019-02-25T04:43:23.196Z,45.73
2019-02-25T04:45:54.454Z,49.23
2019-02-25T04:48:25.723Z,55.83
2019-02-25T04:50:57.325Z,48.77
2019-02-25T04:53:28.565Z,51.27
2019-02-25T04:55:59.882Z,51.93
2019-02-25T04:58:30.966Z,49.20
2019-02-25T05:01:02.387Z,52.10
2019-02-25T05:03:35.226Z,52.30
2019-02-25T05:06:06.685Z,54.30
2019-02-25T05:08:38.651Z,55.30
2019-02-25T05:11:10.059Z,56.67
2019-02-25T05:13:41.554Z,66.43
2019-02-25T05:16:12.543Z,62.03
2019-02-25T05:18:43.452Z,73.13
2019-02-25T05:21:14.955Z,65.83
2019-02-25T05:23:46.471Z,73.73
2019-02-25T05:26:18.904Z,70.37
2019-02-25T05:28:51.770Z,75.87
2019-02-25T05:31:22.826Z,90.50
2019-02-25T05:33:54.672Z,83.13
2019-02-25T05:36:27.335Z,83.43
2019-02-25T05:38:58.825Z,91.07
2019-02-25T05:41:30.290Z,89.27
2019-02-25T05:44:04.684Z,93.00
2019-02-25T05:46:43.087Z,84.87
2019-02-25T05:49:13.906Z,100.03
2019-02-25T05:51:45.185Z,96.73
2019-02-25T05:54:16.545Z,92.27
2019-02-25T05:56:47.517Z,93.53
2019-02-25T05:59:20.126Z,86.87
2019-02-25T06:01:54.431Z,92.37
2019-02-25T06:04:25.291Z,94.77
2019-02-25T06:06:56.355Z,101.80
2019-02-25T06:09:27.135Z,100.07
2019-02-25T06:11:59.273Z,100.23
2019-02-25T06:14:30.300Z,95.20
2019-02-25T06:17:05.523Z,99.50
2019-02-25T06:19:37.634Z,109.53
2019-02-25T06:22:09.027Z,110.43
2019-02-25T06:24:41.200Z,110.03
2019-02-25T06:27:12.575Z,112.53
2019-02-25T06:29:44.162Z,99.73
2019-02-25T06:32:15.601Z,97.13
2019-02-25T06:34:47.174Z,105.97
2019-02-25T06:37:18.671Z,108.17
2019-02-25T06:39:50.551Z,118.40
2019-02-25T06:42:22.770Z,109.23
2019-02-25T06:44:54.280Z,103.17
2019-02-25T06:47:25.526Z,115.47
2019-02-25T06:49:57.132Z,98.27
2019-02-25T06:52:28.674Z,112.90
2019-02-25T06:55:00.224Z,120.13
2019-02-25T06:57:33.325Z,103.97
2019-02-25T07:00:05.992Z,101.67
2019-02-25T07:02:37.862Z,110.30
2019-02-25T07:05:43.964Z,108.90
2019-02-25T07:08:19.926Z,113.13
2019-02-25T07:11:06.062Z,109.23
2019-02-25T07:13:55.319Z,104.47
2019-02-25T07:16:38.452Z,122.23
2019-02-25T07:19:37.785Z,124.67
2019-02-25T07:22:28.137Z,115.23
2019-02-25T07:25:24.743Z,116.70
2019-02-25T07:28:23.677Z,115.03
2019-02-25T07:31:03.507Z,108.63
2019-02-25T07:33:45.058Z,106.37
2019-02-25T07:36:38.869Z,109.47
2019-02-25T07:39:33.785Z,112.10
2019-02-25T07:42:22.754Z,111.73
2019-02-25T07:45:30.930Z,107.17
2019-02-25T07:48:14.872Z,109.97
2019-02-25T07:50:55.995Z,103.47
2019-02-25T07:53:49.169Z,103.53
2019-02-25T07:56:43.844Z,102.67
2019-02-25T07:59:19.927Z,104.93
2019-02-25T08:02:09.546Z,103.30
2019-02-25T08:04:53.758Z,101.43
2019-02-25T08:07:43.993Z,96.53
2019-02-25T08:10:22.348Z,96.63
2019-02-25T08:13:01.353Z,106.93
2019-02-25T08:15:39.212Z,110.17
2019-02-25T08:18:28.821Z,101.33
2019-02-25T08:21:10.623Z,100.30
2019-02-25T08:24:10.021Z,100.70
2019-02-25T08:27:01.435Z,94.13
2019-02-25T08:29:55.107Z,102.93
2019-02-25T08:32:44.387Z,90.43
2019-02-25T08:36:03.048Z,89.90
2019-02-25T08:38:59.042Z,96.53
2019-02-25T08:41:40.990Z,109.20
2019-02-25T08:44:25.609Z,98.87
2019-02-25T08:47:03.659Z,91.83
2019-02-25T08:49:44.302Z,92.40
2019-02-25T08:52:15.148Z,92.60
2019-02-25T08:54:46.729Z,102.60
2019-02-25T08:57:17.660Z,95.60
2019-02-25T08:59:49.258Z,104.60
2019-02-25T09:02:21.005Z,99.57
2019-02-25T09:04:52.188Z,85.63
2019-02-25T09:07:23.741Z,99.80
2019-02-25T09:09:55.330Z,103.80
2019-02-25T09:12:26.961Z,93.07
2019-02-25T09:14:58.503Z,108.77
2019-02-25T09:17:31.698Z,97.03
2019-02-25T09:20:03.481Z,96.30
2019-02-25T09:22:36.331Z,94.67
2019-02-25T09:25:07.871Z,97.50
2019-02-25T09:27:40.059Z,95.10
2019-02-25T09:30:14.475Z,91.17
2019-02-25T09:32:47.386Z,99.03
2019-02-25T09:35:19.849Z,90.20
2019-02-25T09:37:52.746Z,87.17
2019-02-25T09:40:25.018Z,95.30
2019-02-25T09:42:56.263Z,85.77
2019-02-25T09:45:27.504Z,92.87
2019-02-25T09:47:58.583Z,87.47
2019-02-25T09:50:30.565Z,102.30
2019-02-25T09:53:02.657Z,99.93
2019-02-25T09:55:37.077Z,107.30
2019-02-25T09:58:08.031Z,99.50
2019-02-25T10:00:40.718Z,101.33
2019-02-25T10:03:12.277Z,99.13
2019-02-25T10:05:46.312Z,97.80
2019-02-25T10:08:18.068Z,97.67
2019-02-25T10:10:49.840Z,96.10
2019-02-25T10:13:21.380Z,93.83
2019-02-25T10:15:52.349Z,94.83
2019-02-25T10:18:23.990Z,93.20
2019-02-25T10:20:55.997Z,95.70
2019-02-25T10:23:27.533Z,108.47
2019-02-25T10:25:58.789Z,90.67
2019-02-25T10:28:30.722Z,103.03
2019-02-25T10:31:02.445Z,91.40
2019-02-25T10:33:34.032Z,87.43
2019-02-25T10:36:05.798Z,90.53
2019-02-25T10:38:38.575Z,88.33
2019-02-25T10:41:10.354Z,88.30
2019-02-25T10:43:41.575Z,87.73
2019-02-25T10:46:15.106Z,91.87
2019-02-25T10:48:47.518Z,90.17
2019-02-25T10:51:19.178Z,93.13
2019-02-25T10:53:52.031Z,88.73
2019-02-25T10:56:55.762Z,88.03
2019-02-25T10:59:27.183Z,85.43
2019-02-25T11:01:58.529Z,87.80
2019-02-25T11:04:30.547Z,86.13
2019-02-25T11:07:03.516Z,87.67
2019-02-25T11:09:42.456Z,87.33
2019-02-25T11:12:14.903Z,88.90
2019-02-25T11:14:46.607Z,89.93
2019-02-25T11:17:18.338Z,83.07
2019-02-25T11:19:51.118Z,86.13
2019-02-25T11:22:22.029Z,83.47
2019-02-25T11:24:53.518Z,78.63
2019-02-25T11:27:26.288Z,82.83
2019-02-25T11:29:58.158Z,90.73
2019-02-25T11:32:30.373Z,85.33
2019-02-25T11:35:04.060Z,81.93
2019-02-25T11:37:38.346Z,80.37
2019-02-25T11:40:10.112Z,89.20
2019-02-25T11:42:42.622Z,81.50
2019-02-25T11:45:14.373Z,79.70
2019-02-25T11:47:46.445Z,83.20
2019-02-25T11:50:18.691Z,74.70
2019-02-25T11:52:50.193Z,79.97
2019-02-25T11:55:21.987Z,81.50
2019-02-25T11:57:53.755Z,77.93
2019-02-25T12:00:27.193Z,72.10
2019-02-25T12:02:58.545Z,70.27
2019-02-25T12:05:30.792Z,71.77
2019-02-25T12:08:02.700Z,77.30
2019-02-25T12:10:34.389Z,76.20
2019-02-25T12:13:06.229Z,81.70
2019-02-25T12:15:37.738Z,69.73
2019-02-25T12:18:09.337Z,71.60
2019-02-25T12:20:40.952Z,68.43
2019-02-25T12:23:12.681Z,67.23
2019-02-25T12:25:45.056Z,67.40
2019-02-25T12:28:17.172Z,72.93
2019-02-25T12:30:49.118Z,70.47
2019-02-25T12:33:20.493Z,72.73
2019-02-25T12:35:52.267Z,68.13
2019-02-25T12:38:23.767Z,64.70
2019-02-25T12:40:55.684Z,59.60
2019-02-25T12:43:27.423Z,56.37
2019-02-25T12:45:59.114Z,48.97
2019-02-25T12:48:31.028Z,51.40
2019-02-25T12:51:02.861Z,47.57
2019-02-25T12:53:37.763Z,54.73
2019-02-25T12:56:09.273Z,51.87
2019-02-25T12:58:40.958Z,45.93
2019-02-25T13:01:13.043Z,46.87
2019-02-25T13:03:45.948Z,55.67
2019-02-25T13:06:18.505Z,48.67
2019-02-25T13:08:50.129Z,53.30
2019-02-25T13:11:22.132Z,51.50
2019-02-25T13:13:53.537Z,48.37
2019-02-25T13:16:26.756Z,45.90
2019-02-25T13:18:58.121Z,43.43
2019-02-25T13:21:29.703Z,40.17
2019-02-25T13:24:02.098Z,47.67
2019-02-25T13:26:36.600Z,45.73
2019-02-25T13:29:08.624Z,44.17
2019-02-25T13:31:40.141Z,44.50
2019-02-25T13:34:11.894Z,40.77
2019-02-25T13:36:44.731Z,46.43
2019-02-25T13:39:16.275Z,43.80
2019-02-25T13:41:48.089Z,44.60
2019-02-25T13:44:19.569Z,50.13
2019-02-25T13:46:51.169Z,48.27
2019-02-25T13:49:22.996Z,44.23
2019-02-25T13:51:55.151Z,48.03
2019-02-25T13:54:26.904Z,42.63
2019-02-25T13:57:01.776Z,40.33
2019-02-25T13:59:34.249Z,40.87
2019-02-25T14:02:06.358Z,48.23
2019-02-25T14:04:37.985Z,49.87
2019-02-25T14:07:09.028Z,42.37
2019-02-25T14:09:41.026Z,45.07
2019-02-25T14:12:15.109Z,42.60
2019-02-25T14:14:46.322Z,41.80
2019-02-25T14:17:18.851Z,40.20
2019-02-25T14:19:51.970Z,40.03
2019-02-25T14:22:25.057Z,36.50
2019-02-25T14:24:56.757Z,47.43
2019-02-25T14:27:29.588Z,39.47
2019-02-25T14:30:00.797Z,44.23
2019-02-25T14:32:34.591Z,39.33
2019-02-25T14:35:07.923Z,41.87
2019-02-25T14:37:41.118Z,47.37
2019-02-25T14:40:16.685Z,38.07
2019-02-25T14:42:49.468Z,35.30
2019-02-25T14:45:21.822Z,34.63
2019-02-25T14:47:59.686Z,35.60
2019-02-25T14:50:32.407Z,34.07
2019-02-25T14:53:08.576Z,37.17
2019-02-25T14:55:42.875Z,39.40
2019-02-25T14:58:16.933Z,43.57
2019-02-25T15:00:48.630Z,38.30
2019-02-25T15:03:22.513Z,37.73
2019-02-25T15:05:55.033Z,36.43
2019-02-25T15:08:28.491Z,46.20
2019-02-25T15:11:02.304Z,38.13
2019-02-25T15:13:35.412Z,43.77
2019-02-25T15:16:09.352Z,53.00
2019-02-25T15:18:41.123Z,40.17
2019-02-25T15:21:15.158Z,39.40
2019-02-25T15:23:45.026Z,39.50
2019-02-25T15:26:18.963Z,46.17
2019-02-25T15:28:53.709Z,43.20
2019-02-25T15:31:25.469Z,44.43
2019-02-25T15:33:56.417Z,45.93
2019-02-25T15:36:28.959Z,44.23
2019-02-25T15:39:00.158Z,51.67
2019-02-25T15:41:32.142Z,47.70
2019-02-25T15:44:04.882Z,45.13
2019-02-25T15:46:36.363Z,48.97
2019-02-25T15:49:12.810Z,49.23
2019-02-25T15:51:43.096Z,48.77
2019-02-25T15:54:15.907Z,46.97
2019-02-25T15:56:47.165Z,51.20
2019-02-25T15:59:19.543Z,50.07
2019-02-25T16:01:54.463Z,48.60
2019-02-25T16:04:33.963Z,52.63
2019-02-25T16:10:19.317Z,51.83
2019-02-25T16:13:09.274Z,52.33
2019-02-25T16:15:41.727Z,60.17
2019-02-25T16:21:13.233Z,56.33
2019-02-25T16:23:51.387Z,63.37
2019-02-25T16:26:42.827Z,70.13
2019-02-25T16:29:43.955Z,60.87
2019-02-25T16:32:26.907Z,71.57
2019-02-25T16:35:00.137Z,59.43
2019-02-25T16:37:35.137Z,54.37
2019-02-25T16:40:08.343Z,54.07
2019-02-25T16:42:41.605Z,50.23
2019-02-25T16:45:15.349Z,57.00
2019-02-25T16:47:57.884Z,53.73
2019-02-25T16:50:29.961Z,56.30
2019-02-25T16:53:05.932Z,58.20
2019-02-25T16:55:37.117Z,54.17
2019-02-25T16:58:11.239Z,63.83
2019-02-25T17:00:42.206Z,55.37
2019-02-25T17:03:15.984Z,71.60
2019-02-25T17:05:47.665Z,67.30
2019-02-25T17:08:21.562Z,65.17
2019-02-25T17:10:53.969Z,67.10
2019-02-25T17:13:25.741Z,62.50
2019-02-25T17:15:57.605Z,68.77
2019-02-25T17:18:30.914Z,63.77
2019-02-25T17:21:05.100Z,61.53
2019-02-25T17:23:38.799Z,57.73
2019-02-25T17:26:12.500Z,59.37
2019-02-25T17:28:46.011Z,58.23
2019-02-25T17:31:18.695Z,54.63
2019-02-25T17:33:51.414Z,53.50
2019-02-25T17:36:23.984Z,54.30
2019-02-25T17:38:56.171Z,57.57
2019-02-25T17:41:27.671Z,52.50
2019-02-25T17:43:59.233Z,53.07
2019-02-25T17:46:32.836Z,48.60
2019-02-25T17:49:06.019Z,45.47
2019-02-25T17:51:38.371Z,47.10
2019-02-25T17:54:10.785Z,46.33
2019-02-25T17:56:46.922Z,47.40
2019-02-25T17:59:21.377Z,38.23
2019-02-25T18:01:54.959Z,38.07
2019-02-25T18:04:26.611Z,40.30
2019-02-25T18:06:58.839Z,36.37
2019-02-25T18:09:31.057Z,32.73
2019-02-25T18:12:04.317Z,34.70
2019-02-25T18:14:36.959Z,35.93
2019-02-25T18:17:10.306Z,38.93
2019-02-25T18:19:45.629Z,35.73
2019-02-25T18:22:17.520Z,41.23
2019-02-25T18:24:50.988Z,43.43
2019-02-25T18:27:24.308Z,40.83
2019-02-25T18:29:57.093Z,45.27
2019-02-25T18:32:30.468Z,39.60
2019-02-25T18:35:02.744Z,44.53
2019-02-25T18:37:37.231Z,43.60
2019-02-25T18:40:11.731Z,40.87
2019-02-25T18:42:44.678Z,43.33
2019-02-25T18:45:18.143Z,37.83
2019-02-25T18:47:49.119Z,41.57
2019-02-25T18:50:21.766Z,42.53
2019-02-25T18:52:57.237Z,51.87
2019-02-25T18:55:29.412Z,43.87
2019-02-25T18:58:02.105Z,44.20
2019-02-25T19:00:35.631Z,59.43
2019-02-25T19:03:07.919Z,53.80
2019-02-25T19:05:39.451Z,54.47
2019-02-25T19:08:15.025Z,51.13
2019-02-25T19:10:48.005Z,52.27
2019-02-25T19:13:20.945Z,59.60
2019-02-25T19:15:54.855Z,52.80
2019-02-25T19:18:26.273Z,58.63
2019-02-25T19:20:59.764Z,62.57
2019-02-25T19:23:36.895Z,60.23
2019-02-25T19:26:08.143Z,63.43
2019-02-25T19:28:44.034Z,69.27
2019-02-25T19:31:14.030Z,72.27
2019-02-25T19:33:45.961Z,82.57
2019-02-25T19:36:19.156Z,76.33
2019-02-25T19:38:52.199Z,68.30
2019-02-25T19:41:27.112Z,70.47
2019-02-25T19:44:01.974Z,76.60
2019-02-25T19:46:33.772Z,66.90
2019-02-25T19:49:05.885Z,69.90
2019-02-25T20:43:30.176Z,90.73
2019-02-25T20:46:06.057Z,111.40
2019-02-25T20:51:52.241Z,101.47
2019-02-25T20:54:24.158Z,108.57
2019-02-25T20:57:05.896Z,112.77
2019-02-25T20:59:38.892Z,117.07
2019-02-25T21:02:15.860Z,113.50
2019-02-25T21:05:00.795Z,119.47
2019-02-25T21:11:10.979Z,117.07
2019-02-25T21:13:42.349Z,120.10
2019-02-25T21:16:24.103Z,124.93
2019-02-25T21:19:08.062Z,108.67
2019-02-25T21:24:19.495Z,105.87
2019-02-25T21:26:50.630Z,104.67
2019-02-25T21:29:23.167Z,89.80
2019-02-25T21:31:56.536Z,85.67
2019-02-25T21:34:29.150Z,80.77
2019-02-25T21:37:02.921Z,81.87
2019-02-25T21:45:32.271Z,70.03
2019-02-25T21:48:04.925Z,64.77
2019-02-25T21:50:42.677Z,62.13
2019-02-25T21:55:55.523Z,66.40
2019-02-25T21:58:31.050Z,72.70
2019-02-25T22:01:03.120Z,77.53
2019-02-25T22:03:47.960Z,72.93
2019-02-25T22:17:49.706Z,81.33
2019-02-25T22:28:45.097Z,86.03
2019-02-25T22:31:20.546Z,87.70
2019-02-25T22:33:52.643Z,86.93
2019-02-25T22:36:25.974Z,79.87
2019-02-25T22:39:15.300Z,70.53
2019-02-25T22:41:54.277Z,78.47
2019-02-25T23:15:51.144Z,47.57
2019-02-25T23:21:26.945Z,37.40
2019-02-25T23:24:04.720Z,45.13
2019-02-25T23:26:59.516Z,37.73
2019-02-25T23:29:39.618Z,37.33
2019-02-25T23:35:09.420Z,43.10
2019-02-25T23:37:40.237Z,42.03
2019-02-25T23:40:14.892Z,45.87
2019-02-25T23:42:48.992Z,37.67
2019-02-25T23:45:23.056Z,38.93
2019-02-25T23:47:57.591Z,41.63
2019-02-25T23:50:29.600Z,37.57
2019-02-25T23:53:02.468Z,36.47
